createdAt,value
2023-04-03T04:11:52.764Z,9.05
2023-04-03T04:14:56.255Z,9.30
2023-04-03T04:17:58.827Z,8.30
2023-04-03T04:21:01.764Z,7.65
2023-04-03T04:24:04.833Z,9.05
2023-04-03T04:27:07.712Z,9.13
2023-04-03T04:30:12.294Z,7.82
2023-04-03T04:33:15.990Z,8.27
2023-04-03T04:36:18.880Z,8.43
2023-04-03T04:39:21.972Z,7.12
2023-04-03T04:42:24.951Z,7.97
2023-04-03T04:45:28.419Z,8.63
2023-04-03T04:48:32.770Z,8.38
2023-04-03T04:51:48.410Z,9.32
2023-04-03T04:54:54.132Z,8.45
2023-04-03T04:57:56.946Z,8.13
2023-04-03T05:01:06.947Z,9.80
2023-04-03T05:04:10.970Z,7.27
2023-04-03T05:07:14.380Z,7.50
2023-04-03T05:10:27.007Z,7.95
2023-04-03T05:13:29.789Z,12.43
2023-04-03T05:16:33.768Z,7.75
2023-04-03T05:19:36.618Z,7.47
2023-04-03T05:22:40.355Z,7.45
2023-04-03T05:25:46.158Z,8.60
2023-04-03T05:28:49.192Z,7.35
2023-04-03T05:31:52.106Z,8.75
2023-04-03T05:34:55.085Z,7.53
2023-04-03T05:37:57.709Z,7.57
2023-04-03T05:41:01.112Z,8.40
2023-04-03T05:44:03.805Z,7.40
2023-04-03T05:47:06.714Z,7.30
2023-04-03T05:50:09.899Z,7.65
2023-04-03T05:53:22.506Z,8.98
2023-04-03T05:56:25.550Z,7.35
2023-04-03T05:59:28.744Z,6.72
2023-04-03T06:02:32.562Z,7.12
2023-04-03T06:05:37.467Z,9.27
2023-04-03T06:08:40.431Z,8.00
2023-04-03T06:11:43.507Z,9.90
2023-04-03T06:14:46.666Z,9.98
2023-04-03T06:17:50.372Z,7.30
2023-04-03T06:20:52.956Z,5.40
2023-04-03T06:23:56.455Z,7.80
2023-04-03T06:26:59.553Z,8.40
2023-04-03T06:30:02.650Z,7.25
2023-04-03T06:33:06.342Z,5.93
2023-04-03T06:36:11.935Z,10.13
2023-04-03T06:39:16.813Z,5.70
2023-04-03T06:42:19.631Z,6.57
2023-04-03T06:45:22.966Z,6.22
2023-04-03T06:48:25.957Z,5.57
2023-04-03T06:51:30.680Z,6.87
2023-04-03T06:54:33.826Z,3.70
2023-04-03T06:57:37.192Z,4.75
2023-04-03T07:00:40.526Z,3.53
2023-04-03T07:03:43.593Z,5.57
2023-04-03T07:06:47.898Z,3.65
2023-04-03T07:09:50.903Z,3.35
2023-04-03T07:12:54.230Z,3.30
2023-04-03T07:15:57.611Z,4.07
2023-04-03T07:19:00.605Z,4.07
2023-04-03T07:22:03.342Z,6.47
2023-04-03T07:25:08.240Z,3.33
2023-04-03T07:28:10.896Z,3.12
2023-04-03T07:31:17.822Z,4.57
2023-04-03T07:34:20.506Z,4.20
2023-04-03T07:37:23.528Z,3.28
2023-04-03T07:40:26.520Z,3.37
2023-04-03T07:43:29.692Z,3.75
2023-04-03T07:46:33.205Z,2.60
2023-04-03T07:49:40.639Z,2.40
2023-04-03T07:52:43.503Z,2.30
2023-04-03T07:55:48.754Z,2.58
2023-04-03T07:58:51.592Z,2.90
2023-04-03T08:01:54.441Z,2.90
2023-04-03T08:04:57.800Z,2.50
2023-04-03T08:08:00.433Z,2.95
2023-04-03T08:11:06.468Z,2.85
2023-04-03T08:14:09.276Z,2.80
2023-04-03T08:17:14.892Z,2.58
2023-04-03T08:20:18.331Z,2.75
2023-04-03T08:23:21.262Z,2.55
2023-04-03T08:26:24.035Z,2.83
2023-04-03T08:29:27.255Z,2.87
2023-04-03T08:32:30.384Z,2.53
2023-04-03T08:35:33.225Z,2.67
2023-04-03T08:38:38.284Z,2.15
2023-04-03T08:41:43.362Z,2.60
2023-04-03T08:45:07.374Z,2.90
2023-04-03T08:48:22.818Z,2.50
2023-04-03T08:51:27.156Z,2.42
2023-04-03T08:54:35.412Z,3.80
2023-04-03T08:57:43.680Z,4.03
2023-04-03T09:00:48.857Z,2.30
2023-04-03T09:03:51.694Z,2.40
2023-04-03T09:06:59.459Z,2.65
2023-04-03T09:10:04.109Z,1.80
2023-04-03T09:13:14.476Z,5.60
2023-04-03T09:16:49.256Z,2.33
2023-04-03T09:20:30.216Z,4.12
2023-04-03T09:23:46.714Z,1.95
2023-04-03T09:26:57.497Z,2.22
2023-04-03T09:30:00.233Z,7.47
2023-04-03T09:33:03.090Z,2.62
2023-04-03T09:36:05.906Z,2.75
2023-04-03T09:39:18.697Z,2.05
2023-04-03T09:42:24.671Z,2.25
2023-04-03T09:45:29.320Z,2.83
2023-04-03T09:48:31.905Z,2.03
2023-04-03T09:51:34.717Z,2.40
2023-04-03T09:54:42.133Z,3.62
2023-04-03T09:57:46.976Z,2.70
2023-04-03T10:00:57.020Z,1.70
2023-04-03T10:04:19.158Z,1.73
2023-04-03T10:08:01.659Z,2.10
2023-04-03T10:11:11.941Z,2.22
2023-04-03T10:14:18.213Z,2.20
2023-04-03T10:17:44.855Z,2.80
2023-04-03T10:20:51.576Z,1.98
2023-04-03T10:24:08.034Z,1.70
2023-04-03T10:27:17.397Z,1.90
2023-04-03T10:30:42.649Z,1.60
2023-04-03T10:34:06.077Z,4.40
2023-04-03T10:37:23.888Z,1.40
2023-04-03T10:40:48.592Z,1.40
2023-04-03T10:44:17.611Z,1.70
2023-04-03T10:47:38.854Z,1.62
2023-04-03T10:50:53.481Z,2.40
2023-04-03T10:54:10.315Z,2.10
2023-04-03T10:57:14.015Z,3.58
2023-04-03T11:00:25.611Z,1.62
2023-04-03T11:03:37.604Z,1.60
2023-04-03T11:06:52.889Z,1.50
2023-04-03T11:10:17.703Z,1.58
2023-04-03T11:13:34.281Z,2.00
2023-04-03T11:16:54.277Z,1.48
2023-04-03T11:20:02.689Z,2.58
2023-04-03T11:23:35.660Z,3.95
2023-04-03T11:26:43.360Z,1.75
2023-04-03T11:29:48.019Z,1.60
2023-04-03T11:32:50.667Z,1.48
2023-04-03T11:35:58.326Z,1.70
2023-04-03T11:39:16.680Z,1.42
2023-04-03T11:42:41.222Z,1.40
2023-04-03T11:45:50.339Z,1.55
2023-04-03T11:48:54.755Z,2.25
2023-04-03T11:51:58.072Z,2.72
2023-04-03T11:55:00.894Z,1.40
2023-04-03T11:58:14.389Z,1.75
2023-04-03T12:01:55.880Z,1.90
2023-04-03T12:05:31.478Z,1.52
2023-04-03T12:08:33.960Z,1.60
2023-04-03T12:11:37.762Z,2.15
2023-04-03T12:14:41.306Z,1.48
2023-04-03T12:17:44.393Z,3.08
2023-04-03T12:20:49.995Z,1.58
2023-04-03T12:24:10.113Z,3.40
2023-04-03T12:27:39.518Z,1.58
2023-04-03T12:30:44.461Z,1.75
2023-04-03T12:34:16.283Z,1.50
2023-04-03T12:37:22.110Z,1.40
2023-04-03T12:40:43.100Z,2.08
2023-04-03T12:44:05.278Z,1.45
2023-04-03T12:47:22.938Z,1.37
2023-04-03T12:50:31.942Z,1.65
2023-04-03T12:53:39.642Z,3.30
2023-04-03T12:56:42.448Z,1.67
2023-04-03T12:59:47.480Z,1.40
2023-04-03T13:02:50.769Z,1.70
2023-04-03T13:05:58.328Z,1.50
2023-04-03T13:09:02.165Z,1.70
2023-04-03T13:12:12.817Z,1.85
2023-04-03T13:15:44.115Z,1.70
2023-04-03T13:22:08.658Z,3.12
2023-04-03T13:25:14.951Z,3.58
2023-04-03T13:28:22.803Z,2.55
2023-04-03T13:31:31.244Z,1.40
2023-04-03T13:34:45.908Z,1.55
2023-04-03T13:38:01.796Z,2.50
2023-04-03T13:41:24.540Z,2.58
2023-04-03T13:44:34.763Z,3.80
2023-04-03T13:47:44.239Z,1.67
2023-04-03T13:50:56.055Z,1.62
2023-04-03T13:54:20.308Z,2.85
2023-04-03T13:57:23.651Z,1.62
2023-04-03T14:00:35.710Z,1.80
2023-04-03T14:03:41.785Z,1.58
2023-04-03T14:06:44.856Z,1.95
2023-04-03T14:09:48.014Z,1.77
2023-04-03T14:12:52.115Z,2.03
2023-04-03T14:15:56.509Z,1.52
2023-04-03T14:19:01.118Z,2.42
2023-04-03T14:22:24.321Z,1.37
2023-04-03T14:25:27.732Z,1.37
2023-04-03T14:28:33.480Z,1.50
2023-04-03T14:31:36.336Z,1.80
2023-04-03T14:34:39.430Z,1.75
2023-04-03T14:37:42.627Z,2.45
2023-04-03T14:40:48.352Z,1.73
2023-04-03T14:43:52.174Z,2.03
2023-04-03T14:46:57.163Z,1.85
2023-04-03T14:50:05.520Z,2.17
2023-04-03T14:53:08.775Z,1.90
2023-04-03T14:56:24.436Z,2.75
2023-04-03T14:59:28.246Z,1.70
2023-04-03T15:02:37.022Z,1.90
2023-04-03T15:05:40.063Z,2.00
2023-04-03T15:08:44.645Z,2.80
2023-04-03T15:11:48.385Z,2.15
2023-04-03T15:14:57.424Z,2.47
